createdAt,value
2019-05-02T00:00:05.427Z,1012.5
2019-05-02T00:01:05.440Z,1012.5
2019-05-02T00:02:05.511Z,1012.5
2019-05-02T00:03:05.761Z,1012.5
2019-05-02T00:04:05.621Z,1012.4
2019-05-02T00:05:05.670Z,1012.4
2019-05-02T00:06:07.305Z,1012.5
2019-05-02T00:07:05.786Z,1012.5
2019-05-02T00:08:05.827Z,1012.5
2019-05-02T00:09:09.062Z,1012.5
2019-05-02T00:10:05.922Z,1012.3
2019-05-02T00:11:05.984Z,1012.5
2019-05-02T00:12:06.065Z,1012.4
2019-05-02T00:13:06.096Z,1012.4
2019-05-02T00:14:06.157Z,1012.4
2019-05-02T00:15:06.196Z,1012.4
2019-05-02T00:16:08.995Z,1012.4
2019-05-02T00:17:06.275Z,1012.3
2019-05-02T00:18:06.290Z,1012.3
2019-05-02T00:19:09.026Z,1012.4
2019-05-02T00:20:06.336Z,1012.3
2019-05-02T00:21:06.324Z,1012.3
2019-05-02T00:22:06.394Z,1012.3
2019-05-02T00:23:06.462Z,1012.3
2019-05-02T00:24:06.469Z,1012.3
2019-05-02T00:25:06.515Z,1012.3
2019-05-02T00:26:06.572Z,1012.4
2019-05-02T00:27:06.601Z,1012.2
2019-05-02T00:28:07.669Z,1012.2
2019-05-02T00:29:06.801Z,1012.2
2019-05-02T00:30:06.781Z,1012.2
2019-05-02T00:31:07.342Z,1012.2
2019-05-02T00:32:06.825Z,1012.1
2019-05-02T00:33:06.867Z,1012.2
2019-05-02T00:34:06.917Z,1012.2
2019-05-02T00:35:06.911Z,1012.2
2019-05-02T00:36:06.978Z,1012.1
2019-05-02T00:37:06.964Z,1012.2
2019-05-02T00:38:06.974Z,1012.1
2019-05-02T00:39:09.465Z,1012
2019-05-02T00:40:07.058Z,1012.2
2019-05-02T00:41:07.117Z,1012.1
2019-05-02T00:42:12.608Z,1012.1
2019-05-02T00:43:07.124Z,1012
2019-05-02T00:44:10.919Z,1012.1
2019-05-02T00:45:07.182Z,1012
2019-05-02T00:46:07.215Z,1012
2019-05-02T00:47:10.800Z,1012
2019-05-02T00:48:07.315Z,1011.9
2019-05-02T00:49:07.370Z,1011.9
2019-05-02T00:50:11.142Z,1012
2019-05-02T00:51:07.465Z,1011.9
2019-05-02T00:52:07.475Z,1011.9
2019-05-02T00:53:11.947Z,1011.9
2019-05-02T00:54:07.570Z,1011.9
2019-05-02T00:55:10.126Z,1011.9
2019-05-02T00:56:08.998Z,1011.9
2019-05-02T00:57:07.627Z,1011.9
2019-05-02T00:58:07.687Z,1011.9
2019-05-02T00:59:08.792Z,1011.8
2019-05-02T01:00:07.707Z,1011.9
2019-05-02T01:01:07.759Z,1011.9
2019-05-02T01:02:07.756Z,1011.8
2019-05-02T01:03:10.984Z,1011.8
2019-05-02T01:04:07.812Z,1011.8
2019-05-02T01:05:07.846Z,1011.7
2019-05-02T01:06:13.567Z,1011.8
2019-05-02T01:07:07.908Z,1011.7
2019-05-02T01:08:07.913Z,1011.7
2019-05-02T01:09:10.859Z,1011.7
2019-05-02T01:10:07.968Z,1011.7
2019-05-02T01:11:08.024Z,1011.7
2019-05-02T01:12:10.188Z,1011.7
2019-05-02T01:13:07.970Z,1011.7
2019-05-02T01:14:08.020Z,1011.7
2019-05-02T01:15:08.504Z,1011.7
2019-05-02T01:16:08.056Z,1011.6
2019-05-02T01:17:08.067Z,1011.6
2019-05-02T01:18:08.108Z,1011.6
2019-05-02T01:19:12.054Z,1011.6
2019-05-02T01:20:08.115Z,1011.6
2019-05-02T01:21:08.239Z,1011.6
2019-05-02T01:22:10.397Z,1011.7
2019-05-02T01:23:08.158Z,1011.6
2019-05-02T01:24:08.199Z,1011.6
2019-05-02T01:25:14.925Z,1011.6
2019-05-02T01:26:08.210Z,1011.6
2019-05-02T01:27:08.197Z,1011.7
2019-05-02T01:28:12.446Z,1011.6
2019-05-02T01:29:08.257Z,1011.6
2019-05-02T01:30:08.257Z,1011.5
2019-05-02T01:31:08.264Z,1011.6
2019-05-02T01:32:08.256Z,1011.6
2019-05-02T01:33:08.255Z,1011.5
2019-05-02T01:34:08.251Z,1011.5
2019-05-02T01:35:08.285Z,1011.5
2019-05-02T01:36:08.289Z,1011.5
2019-05-02T01:37:11.834Z,1011.5
2019-05-02T01:38:08.280Z,1011.5
2019-05-02T01:39:10.536Z,1011.5
2019-05-02T01:40:08.331Z,1011.5
2019-05-02T01:41:08.405Z,1011.4
2019-05-02T01:42:08.466Z,1011.4
2019-05-02T01:43:08.467Z,1011.4
2019-05-02T01:44:08.489Z,1011.4
2019-05-02T01:45:11.122Z,1011.4
2019-05-02T01:46:08.533Z,1011.4
2019-05-02T01:47:08.619Z,1011.3
2019-05-02T01:48:09.677Z,1011.4
2019-05-02T01:49:08.689Z,1011.2
2019-05-02T01:50:08.791Z,1011.3
2019-05-02T01:51:09.901Z,1011.2
2019-05-02T01:52:08.845Z,1011.3
2019-05-02T01:53:08.913Z,1011.3
2019-05-02T01:54:09.911Z,1011.3
2019-05-02T01:55:08.969Z,1011.2
2019-05-02T01:56:08.996Z,1011.2
2019-05-02T01:57:10.002Z,1011.2
2019-05-02T01:58:09.008Z,1011.2
2019-05-02T01:59:09.068Z,1011.2
2019-05-02T02:00:11.082Z,1011.2
2019-05-02T02:01:09.207Z,1011.1
2019-05-02T02:02:09.255Z,1011.2
2019-05-02T02:03:10.348Z,1011.1
2019-05-02T02:04:09.331Z,1011.2
2019-05-02T02:05:09.328Z,1011.2
2019-05-02T02:06:10.055Z,1011.2
2019-05-02T02:07:09.438Z,1011.1
2019-05-02T02:08:09.451Z,1011.2
2019-05-02T02:09:09.844Z,1011.2
2019-05-02T02:10:09.525Z,1011.2
2019-05-02T02:11:09.582Z,1011.3
2019-05-02T02:12:11.254Z,1011.2
2019-05-02T02:13:09.620Z,1011.1
2019-05-02T02:14:12.758Z,1011.2
2019-05-02T02:15:09.702Z,1011.1
2019-05-02T02:16:09.764Z,1011.2
2019-05-02T02:17:14.928Z,1011.2
2019-05-02T02:18:09.841Z,1011.2
2019-05-02T02:19:09.886Z,1011.1
2019-05-02T02:20:14.008Z,1011.1
2019-05-02T02:21:09.970Z,1011.1
2019-05-02T02:22:10.008Z,1011.1
2019-05-02T02:23:14.007Z,1011.1
2019-05-02T02:24:10.112Z,1011.1
2019-05-02T02:25:10.094Z,1011.1
2019-05-02T02:26:11.872Z,1011.1
2019-05-02T02:27:10.195Z,1011.1
2019-05-02T02:28:10.228Z,1011.1
2019-05-02T02:29:10.259Z,1011.2
2019-05-02T02:30:10.329Z,1011.1
2019-05-02T02:31:10.325Z,1011.1
2019-05-02T02:32:10.418Z,1011.1
2019-05-02T02:33:10.438Z,1011.1
2019-05-02T02:34:10.497Z,1011
2019-05-02T02:35:12.531Z,1011
2019-05-02T02:36:10.550Z,1011.1
2019-05-02T02:37:12.326Z,1011
2019-05-02T02:38:10.615Z,1011
2019-05-02T02:39:13.970Z,1011.1
2019-05-02T02:40:10.687Z,1011.1
2019-05-02T02:41:12.891Z,1011.1
2019-05-02T02:42:10.865Z,1011.1
2019-05-02T02:43:31.566Z,1011.1
2019-05-02T02:44:10.915Z,1011
2019-05-02T02:45:12.770Z,1011.1
2019-05-02T02:46:10.832Z,1011.1
2019-05-02T02:47:11.800Z,1011.1
2019-05-02T02:48:10.898Z,1011.1
2019-05-02T02:49:13.835Z,1011.1
2019-05-02T02:50:10.902Z,1011
2019-05-02T02:51:21.958Z,1011
2019-05-02T02:52:10.965Z,1011
2019-05-02T02:53:10.981Z,1011.1
2019-05-02T02:54:11.035Z,1011
2019-05-02T02:55:15.992Z,1011
2019-05-02T02:56:11.053Z,1011.1
2019-05-02T02:57:19.936Z,1011
2019-05-02T02:58:11.094Z,1011.1
2019-05-02T02:59:11.152Z,1011
2019-05-02T03:00:11.482Z,1011
2019-05-02T03:01:11.163Z,1011
2019-05-02T03:02:12.073Z,1011
2019-05-02T03:03:11.194Z,1011
2019-05-02T03:04:12.138Z,1011
2019-05-02T03:05:11.225Z,1011
2019-05-02T03:06:11.278Z,1011.1
2019-05-02T03:07:11.271Z,1011.1
2019-05-02T03:08:11.284Z,1011
2019-05-02T03:09:11.300Z,1011
2019-05-02T03:10:11.330Z,1011
2019-05-02T03:11:11.358Z,1011
2019-05-02T03:12:11.343Z,1011
2019-05-02T03:13:14.873Z,1011
2019-05-02T03:14:11.369Z,1011
2019-05-02T03:15:11.406Z,1010.9
2019-05-02T03:16:11.429Z,1011
2019-05-02T03:17:11.440Z,1011
2019-05-02T03:18:11.447Z,1011
2019-05-02T03:19:14.517Z,1011.1
2019-05-02T03:20:11.445Z,1011
2019-05-02T03:21:13.160Z,1011
2019-05-02T03:22:11.469Z,1011
2019-05-02T03:23:14.964Z,1011
2019-05-02T03:24:11.468Z,1011
2019-05-02T03:25:11.478Z,1011
2019-05-02T03:26:14.732Z,1011.1
2019-05-02T03:27:11.485Z,1011.1
2019-05-02T03:28:17.232Z,1011.2
2019-05-02T03:29:11.501Z,1011.2
2019-05-02T03:30:28.709Z,1011.1
2019-05-02T03:31:23.363Z,1011.1
2019-05-02T03:32:15.323Z,1011.1
2019-05-02T03:33:12.443Z,1011.2
2019-05-02T03:34:11.667Z,1011.1
2019-05-02T03:35:17.768Z,1011.1
2019-05-02T03:36:25.577Z,1011.1
2019-05-02T03:37:13.812Z,1011.2
2019-05-02T03:38:11.869Z,1011.1
2019-05-02T03:39:14.537Z,1011.2
2019-05-02T03:40:11.984Z,1011.2
2019-05-02T03:41:13.054Z,1011.2
2019-05-02T03:42:12.014Z,1011.1
2019-05-02T03:43:12.057Z,1011
2019-05-02T03:44:24.485Z,1011.1
2019-05-02T03:45:12.206Z,1011.1
2019-05-02T03:46:13.391Z,1011.1
2019-05-02T03:47:12.286Z,1011.1
2019-05-02T03:48:18.062Z,1011.1
2019-05-02T03:49:12.358Z,1011.2
2019-05-02T03:50:12.458Z,1011.2
2019-05-02T03:51:21.164Z,1011.2
2019-05-02T03:52:12.519Z,1011.1
2019-05-02T03:53:17.489Z,1011.2
2019-05-02T03:54:12.642Z,1011.1
2019-05-02T03:55:12.667Z,1011.3
2019-05-02T03:56:13.988Z,1011.2
2019-05-02T03:57:12.818Z,1011.2
2019-05-02T03:58:13.963Z,1011.2
2019-05-02T03:59:12.899Z,1011.2
2019-05-02T04:00:20.673Z,1011.1
2019-05-02T04:01:12.999Z,1011.1
2019-05-02T04:02:13.866Z,1011.2
2019-05-02T04:03:13.018Z,1011.1
2019-05-02T04:04:14.011Z,1011.2
2019-05-02T04:05:13.075Z,1011.2
2019-05-02T04:06:13.638Z,1011.2
2019-05-02T04:07:13.140Z,1011.1
2019-05-02T04:08:19.394Z,1011.1
2019-05-02T04:09:13.219Z,1011.2
2019-05-02T04:10:19.621Z,1011.1
2019-05-02T04:11:13.331Z,1011.2
2019-05-02T04:12:18.504Z,1011.2
2019-05-02T04:13:13.448Z,1011.2
2019-05-02T04:14:15.869Z,1011.1
2019-05-02T04:15:13.533Z,1011.2
2019-05-02T04:16:15.221Z,1011.1
2019-05-02T04:17:13.611Z,1011.1
2019-05-02T04:18:15.154Z,1011.2
2019-05-02T04:19:13.698Z,1011.2
2019-05-02T04:20:13.776Z,1011.1
2019-05-02T04:21:13.771Z,1011.1
2019-05-02T04:22:13.809Z,1011.1
2019-05-02T04:23:13.870Z,1011.1
2019-05-02T04:24:15.964Z,1011.1
2019-05-02T04:25:13.925Z,1011.1
2019-05-02T04:26:14.432Z,1011.1
2019-05-02T04:27:13.979Z,1011.1
2019-05-02T04:28:14.387Z,1011.1
2019-05-02T04:29:14.012Z,1011
2019-05-02T04:30:14.439Z,1011.1
2019-05-02T04:31:14.048Z,1011.1
2019-05-02T04:32:14.597Z,1011
2019-05-02T04:33:14.124Z,1011
2019-05-02T04:34:17.390Z,1011
2019-05-02T04:35:14.211Z,1011
2019-05-02T04:36:17.578Z,1011.1
2019-05-02T04:37:14.254Z,1011
2019-05-02T04:38:19.929Z,1011
2019-05-02T04:39:18.256Z,1011
2019-05-02T04:40:14.378Z,1011
2019-05-02T04:41:18.603Z,1011
2019-05-02T04:42:19.348Z,1010.9
2019-05-02T04:43:14.394Z,1011
2019-05-02T04:44:14.389Z,1011
2019-05-02T04:45:26.153Z,1011.1
2019-05-02T04:46:18.753Z,1011
2019-05-02T04:47:18.285Z,1011
2019-05-02T04:48:14.436Z,1011
2019-05-02T04:49:19.838Z,1011.1
2019-05-02T04:50:24.064Z,1011.1
2019-05-02T04:51:17.358Z,1011.1
2019-05-02T04:52:16.989Z,1011
2019-05-02T04:53:14.520Z,1011.1
2019-05-02T04:54:21.265Z,1011.1
2019-05-02T04:55:22.883Z,1011.1
2019-05-02T04:56:14.595Z,1011
2019-05-02T04:57:18.413Z,1011
2019-05-02T04:58:23.845Z,1011.1
2019-05-02T04:59:19.716Z,1011.1
2019-05-02T05:00:14.663Z,1011
2019-05-02T05:01:14.736Z,1011.1
2019-05-02T05:02:20.794Z,1011
2019-05-02T05:03:15.803Z,1011.1
2019-05-02T05:04:14.844Z,1011.1
2019-05-02T05:05:17.114Z,1011.1
2019-05-02T05:06:14.798Z,1011.2
2019-05-02T05:07:14.808Z,1011.1
2019-05-02T05:08:17.363Z,1011.2
2019-05-02T05:09:15.157Z,1011.1
2019-05-02T05:10:14.850Z,1011.2
2019-05-02T05:11:18.960Z,1011.2
2019-05-02T05:12:14.882Z,1011.2
2019-05-02T05:13:17.279Z,1011.1
2019-05-02T05:14:14.917Z,1011.2
2019-05-02T05:15:33.222Z,1011.2
2019-05-02T05:16:15.759Z,1011.1
2019-05-02T05:17:17.870Z,1011.2
2019-05-02T05:18:14.943Z,1011.1
2019-05-02T05:19:14.959Z,1011.1
2019-05-02T05:20:15.825Z,1011.2
2019-05-02T05:21:15.476Z,1011.1
2019-05-02T05:22:15.047Z,1011.2
2019-05-02T05:23:16.387Z,1011.2
2019-05-02T05:24:14.987Z,1011.2
2019-05-02T05:25:17.520Z,1011.1
2019-05-02T05:26:15.014Z,1011.2
2019-05-02T05:27:18.746Z,1011.2
2019-05-02T05:28:15.008Z,1011.2
2019-05-02T05:29:19.175Z,1011.1
2019-05-02T05:30:18.605Z,1011.2
2019-05-02T05:31:16.319Z,1011.1
2019-05-02T05:32:15.185Z,1011.2
2019-05-02T05:33:15.250Z,1011.1
2019-05-02T05:34:16.931Z,1011.1
2019-05-02T05:35:17.529Z,1011.2
2019-05-02T05:36:15.417Z,1011.1
2019-05-02T05:37:17.221Z,1011.2
2019-05-02T05:38:15.526Z,1011.3
2019-05-02T05:39:17.174Z,1011.1
2019-05-02T05:40:17.571Z,1011.2
2019-05-02T05:41:19.133Z,1011.2
2019-05-02T05:42:17.798Z,1011.1
2019-05-02T05:43:20.239Z,1011.1
2019-05-02T05:44:17.879Z,1011.1
2019-05-02T05:45:17.359Z,1011.1
2019-05-02T05:46:17.791Z,1011.1
2019-05-02T05:47:17.495Z,1011.1
2019-05-02T05:48:18.222Z,1011.1
2019-05-02T05:49:18.262Z,1011
2019-05-02T05:50:17.624Z,1011.1
2019-05-02T05:51:16.886Z,1011.1
2019-05-02T05:52:17.897Z,1011.1
2019-05-02T05:53:17.031Z,1011
2019-05-02T05:54:17.807Z,1011
2019-05-02T05:55:18.116Z,1011
2019-05-02T05:56:17.984Z,1011.2
2019-05-02T05:57:17.302Z,1011
2019-05-02T05:58:18.692Z,1011
2019-05-02T05:59:17.470Z,1011
2019-05-02T06:00:22.580Z,1011
2019-05-02T06:01:17.631Z,1011
2019-05-02T06:02:18.322Z,1011
2019-05-02T06:03:17.865Z,1011
2019-05-02T06:04:19.228Z,1011
2019-05-02T06:05:17.624Z,1011
2019-05-02T06:06:22.305Z,1011
2019-05-02T06:07:17.574Z,1011
2019-05-02T06:08:18.319Z,1011
2019-05-02T06:09:16.797Z,1011
2019-05-02T06:10:16.760Z,1011
2019-05-02T06:11:19.931Z,1011
2019-05-02T06:12:16.828Z,1011
2019-05-02T06:13:16.823Z,1011.1
2019-05-02T06:14:19.870Z,1011
2019-05-02T06:15:16.907Z,1011
2019-05-02T06:16:16.899Z,1011
2019-05-02T06:17:16.920Z,1011
2019-05-02T06:18:16.922Z,1011
2019-05-02T06:19:17.775Z,1011
2019-05-02T06:20:16.972Z,1011
2019-05-02T06:21:17.242Z,1011
2019-05-02T06:22:24.107Z,1011
2019-05-02T06:23:17.129Z,1010.9
2019-05-02T06:24:17.192Z,1010.9
2019-05-02T06:25:17.285Z,1011
2019-05-02T06:26:17.288Z,1010.9
2019-05-02T06:27:20.722Z,1010.9
2019-05-02T06:28:17.298Z,1010.9
2019-05-02T06:29:18.429Z,1010.9
2019-05-02T06:30:17.372Z,1010.9
2019-05-02T06:31:17.460Z,1010.9
2019-05-02T06:32:19.120Z,1010.8
2019-05-02T06:33:17.487Z,1010.8
2019-05-02T06:34:17.510Z,1010.9
2019-05-02T06:35:21.067Z,1010.9
2019-05-02T06:36:17.532Z,1010.8
2019-05-02T06:37:17.576Z,1010.8
2019-05-02T06:38:21.509Z,1010.9
2019-05-02T06:39:17.642Z,1010.9
2019-05-02T06:40:17.652Z,1010.8
2019-05-02T06:41:20.892Z,1010.8
2019-05-02T06:42:17.719Z,1010.8
2019-05-02T06:43:17.737Z,1010.8
2019-05-02T06:44:18.335Z,1010.7
2019-05-02T06:45:17.789Z,1010.7
2019-05-02T06:46:21.576Z,1010.7
2019-05-02T06:47:17.830Z,1010.6
2019-05-02T06:48:19.073Z,1010.6
2019-05-02T06:49:17.888Z,1010.6
2019-05-02T06:50:17.905Z,1010.5
2019-05-02T06:51:20.752Z,1010.5
2019-05-02T06:52:17.966Z,1010.5
2019-05-02T06:53:17.950Z,1010.6
2019-05-02T06:54:22.547Z,1010.5
2019-05-02T06:55:17.994Z,1010.4
2019-05-02T06:56:18.014Z,1010.4
2019-05-02T06:57:18.983Z,1010.4
2019-05-02T06:58:18.045Z,1010.5
2019-05-02T06:59:20.126Z,1010.4
2019-05-02T07:00:18.059Z,1010.3
2019-05-02T07:01:21.101Z,1010.3
2019-05-02T07:02:18.104Z,1010.4
2019-05-02T07:03:18.107Z,1010.2
2019-05-02T07:04:22.752Z,1010.2
2019-05-02T07:05:18.124Z,1010.3
2019-05-02T07:06:18.253Z,1010.2
2019-05-02T07:07:18.138Z,1010.3
2019-05-02T07:08:18.166Z,1010.2
2019-05-02T07:09:18.294Z,1010.3
2019-05-02T07:10:19.934Z,1010.2
2019-05-02T07:11:18.149Z,1010.2
2019-05-02T07:12:18.143Z,1010.3
2019-05-02T07:13:18.209Z,1010.2
2019-05-02T07:14:18.505Z,1010.1
2019-05-02T07:15:18.185Z,1010.2
2019-05-02T07:16:36.756Z,1010.1
2019-05-02T07:17:18.192Z,1010.2
2019-05-02T07:18:18.203Z,1010.1
2019-05-02T07:19:21.576Z,1010.1
2019-05-02T07:20:18.309Z,1010
2019-05-02T07:21:23.051Z,1010.1
2019-05-02T07:22:18.403Z,1010.1
2019-05-02T07:23:18.511Z,1010
2019-05-02T07:24:18.445Z,1010
2019-05-02T07:25:18.480Z,1010
2019-05-02T07:26:20.931Z,1010
2019-05-02T07:27:18.590Z,1009.9
2019-05-02T07:28:18.664Z,1010
2019-05-02T07:29:21.765Z,1010.1
2019-05-02T07:30:18.722Z,1010
2019-05-02T07:31:18.796Z,1010
2019-05-02T07:32:19.142Z,1010
2019-05-02T07:33:18.824Z,1010.1
2019-05-02T07:34:18.918Z,1009.9
2019-05-02T07:35:23.927Z,1010
2019-05-02T07:36:19.025Z,1010
2019-05-02T07:37:18.998Z,1009.9
2019-05-02T07:38:20.103Z,1009.9
2019-05-02T07:39:19.087Z,1009.9
2019-05-02T07:40:19.169Z,1010
2019-05-02T07:41:19.155Z,1010.1
2019-05-02T07:42:19.216Z,1010
2019-05-02T07:43:22.139Z,1009.9
2019-05-02T07:44:19.423Z,1010
2019-05-02T07:45:19.333Z,1009.9
2019-05-02T07:46:20.908Z,1009.9
2019-05-02T07:47:19.405Z,1010
2019-05-02T07:48:19.471Z,1009.9
2019-05-02T07:49:20.773Z,1009.9
2019-05-02T07:50:19.499Z,1009.9
2019-05-02T07:51:21.225Z,1009.9
2019-05-02T07:52:19.587Z,1009.9
2019-05-02T07:53:19.645Z,1009.9
2019-05-02T07:54:24.657Z,1009.8
2019-05-02T07:55:19.731Z,1009.8
2019-05-02T07:56:20.930Z,1009.8
2019-05-02T07:57:19.837Z,1009.8
2019-05-02T07:58:19.854Z,1009.7
2019-05-02T07:59:23.257Z,1009.8
2019-05-02T08:00:19.858Z,1009.8
2019-05-02T08:01:19.927Z,1009.9
2019-05-02T08:02:20.154Z,1009.9
2019-05-02T08:03:19.983Z,1009.9
2019-05-02T08:04:20.019Z,1009.9
2019-05-02T08:05:21.461Z,1009.8
2019-05-02T08:06:20.122Z,1009.9
2019-05-02T08:07:21.064Z,1009.8
2019-05-02T08:08:20.212Z,1009.9
2019-05-02T08:09:20.220Z,1009.9
2019-05-02T08:10:21.830Z,1009.9
2019-05-02T08:11:20.323Z,1010
2019-05-02T08:12:20.360Z,1010
2019-05-02T08:13:20.398Z,1009.9
2019-05-02T08:14:20.399Z,1009.9
2019-05-02T08:15:20.492Z,1009.9
2019-05-02T08:16:22.297Z,1009.9
2019-05-02T08:17:20.539Z,1009.9
2019-05-02T08:18:20.551Z,1009.9
2019-05-02T08:19:23.385Z,1009.8
2019-05-02T08:20:21.268Z,1009.8
2019-05-02T08:21:20.659Z,1009.8
2019-05-02T08:22:20.680Z,1009.8
2019-05-02T08:23:25.749Z,1009.8
2019-05-02T08:24:20.722Z,1009.8
2019-05-02T08:25:20.808Z,1009.8
2019-05-02T08:26:21.549Z,1009.8
2019-05-02T08:27:22.953Z,1009.9
2019-05-02T08:28:20.873Z,1009.9
2019-05-02T08:29:23.230Z,1010
2019-05-02T08:30:20.901Z,1010
2019-05-02T08:31:21.102Z,1009.9
2019-05-02T08:32:20.970Z,1009.9
2019-05-02T08:33:20.986Z,1010
2019-05-02T08:34:20.982Z,1009.9
2019-05-02T08:35:20.992Z,1010
2019-05-02T08:36:20.993Z,1010
2019-05-02T08:37:21.041Z,1009.9
2019-05-02T08:38:21.048Z,1010
2019-05-02T08:39:25.377Z,1009.9
2019-05-02T08:40:21.093Z,1009.9
2019-05-02T08:41:21.419Z,1010
2019-05-02T08:42:21.111Z,1010
2019-05-02T08:43:21.181Z,1009.9
2019-05-02T08:44:21.181Z,1009.8
2019-05-02T08:45:21.238Z,1010
2019-05-02T08:46:21.232Z,1009.9
2019-05-02T08:47:23.733Z,1009.9
2019-05-02T08:48:22.741Z,1009.8
2019-05-02T08:49:21.328Z,1009.9
2019-05-02T08:50:21.284Z,1009.9
2019-05-02T08:51:21.304Z,1009.8
2019-05-02T08:52:22.347Z,1009.8
2019-05-02T08:53:22.231Z,1009.7
2019-05-02T08:54:21.367Z,1009.8
2019-05-02T08:55:21.385Z,1009.7
2019-05-02T08:56:21.677Z,1009.7
2019-05-02T08:57:23.691Z,1009.7
2019-05-02T08:58:21.411Z,1009.8
2019-05-02T08:59:24.365Z,1009.7
2019-05-02T09:00:21.455Z,1009.8
2019-05-02T09:01:33.920Z,1009.8
2019-05-02T09:02:25.827Z,1009.8
2019-05-02T09:03:21.484Z,1009.8
2019-05-02T09:04:24.061Z,1009.7
2019-05-02T09:05:21.525Z,1009.7
2019-05-02T09:06:22.322Z,1009.9
2019-05-02T09:07:21.640Z,1009.8
2019-05-02T09:08:21.529Z,1009.9
2019-05-02T09:09:22.680Z,1009.8
2019-05-02T09:10:21.571Z,1009.7
2019-05-02T09:11:21.555Z,1009.8
2019-05-02T09:12:22.909Z,1009.7
2019-05-02T09:13:24.075Z,1009.7
2019-05-02T09:14:21.682Z,1009.7
2019-05-02T09:15:22.289Z,1009.7
2019-05-02T09:16:28.449Z,1009.7
2019-05-02T09:17:32.839Z,1009.7
2019-05-02T09:18:22.332Z,1009.7
2019-05-02T09:19:26.233Z,1009.7
2019-05-02T09:20:23.614Z,1009.7
2019-05-02T09:21:21.999Z,1009.7
2019-05-02T09:22:22.135Z,1009.7
2019-05-02T09:23:22.773Z,1009.6
2019-05-02T09:24:23.843Z,1009.5
2019-05-02T09:25:22.842Z,1009.5
2019-05-02T09:26:33.025Z,1009.6
2019-05-02T09:27:22.401Z,1009.5
2019-05-02T09:28:25.302Z,1009.5
2019-05-02T09:29:22.315Z,1009.4
2019-05-02T09:30:25.774Z,1009.4
2019-05-02T09:31:22.602Z,1009.5
2019-05-02T09:32:26.172Z,1009.5
2019-05-02T09:33:22.609Z,1009.4
2019-05-02T09:34:26.489Z,1009.3
2019-05-02T09:35:23.033Z,1009.3
2019-05-02T09:36:22.636Z,1009.2
2019-05-02T09:37:22.770Z,1009.4
2019-05-02T09:38:22.346Z,1009.3
2019-05-02T09:39:22.788Z,1009.3
2019-05-02T09:40:22.467Z,1009.2
2019-05-02T09:41:26.778Z,1009.2
2019-05-02T09:42:22.549Z,1009.2
2019-05-02T09:43:22.895Z,1009.3
2019-05-02T09:44:22.644Z,1009.2
2019-05-02T09:45:22.884Z,1009.2
2019-05-02T09:46:22.824Z,1009.3
2019-05-02T09:47:27.203Z,1009.2
2019-05-02T09:48:26.733Z,1009.1
2019-05-02T09:49:22.906Z,1009.2
2019-05-02T09:50:29.333Z,1009.1
2019-05-02T09:51:22.999Z,1009
2019-05-02T09:52:23.141Z,1009.1
2019-05-02T09:53:25.417Z,1009.1
2019-05-02T09:54:23.348Z,1009
2019-05-02T09:55:23.182Z,1009.1
2019-05-02T09:56:23.183Z,1009.1
2019-05-02T09:57:23.254Z,1009.1
2019-05-02T09:58:23.948Z,1009.2
2019-05-02T09:59:29.417Z,1009.2
2019-05-02T10:00:32.055Z,1009.1
2019-05-02T10:01:23.380Z,1008.9
2019-05-02T10:02:25.226Z,1009
2019-05-02T10:03:23.456Z,1009
2019-05-02T10:04:23.490Z,1009.1
2019-05-02T10:05:23.538Z,1009
2019-05-02T10:06:23.545Z,1009
2019-05-02T10:07:23.588Z,1009
2019-05-02T10:08:23.627Z,1008.9
2019-05-02T10:09:27.070Z,1009
2019-05-02T10:10:23.697Z,1009
2019-05-02T10:11:25.970Z,1009.1
2019-05-02T10:12:23.783Z,1009
2019-05-02T10:13:23.789Z,1008.9
2019-05-02T10:14:23.915Z,1008.9
2019-05-02T10:15:23.814Z,1008.9
2019-05-02T10:16:27.258Z,1008.8
2019-05-02T10:17:23.873Z,1008.8
2019-05-02T10:18:25.349Z,1008.9
2019-05-02T10:19:26.050Z,1008.9
2019-05-02T10:20:31.704Z,1008.9
2019-05-02T10:21:24.016Z,1008.8
2019-05-02T10:22:26.546Z,1008.9
2019-05-02T10:23:24.099Z,1008.8
2019-05-02T10:24:24.064Z,1008.8
2019-05-02T10:25:24.097Z,1008.9
2019-05-02T10:26:24.747Z,1008.9
2019-05-02T10:27:24.179Z,1008.8
2019-05-02T10:28:24.205Z,1008.8
2019-05-02T10:29:28.207Z,1008.8
2019-05-02T10:30:24.255Z,1008.8
2019-05-02T10:31:27.457Z,1008.7
2019-05-02T10:32:24.288Z,1008.8
2019-05-02T10:33:27.850Z,1008.8
2019-05-02T10:34:24.345Z,1008.8
2019-05-02T10:35:27.571Z,1008.7
2019-05-02T10:36:24.422Z,1008.7
2019-05-02T10:37:24.419Z,1008.7
2019-05-02T10:38:24.440Z,1008.7
2019-05-02T10:39:28.334Z,1008.7
2019-05-02T10:40:24.494Z,1008.8
2019-05-02T10:41:24.526Z,1008.7
2019-05-02T10:42:24.539Z,1008.8
2019-05-02T10:43:24.594Z,1008.8
2019-05-02T10:44:27.092Z,1008.7
2019-05-02T10:45:24.621Z,1008.8
2019-05-02T10:46:27.707Z,1008.7
2019-05-02T10:47:24.673Z,1008.6
2019-05-02T10:48:28.136Z,1008.6
2019-05-02T10:49:24.713Z,1008.6
2019-05-02T10:50:24.737Z,1008.7
2019-05-02T10:51:26.137Z,1008.7
2019-05-02T10:52:29.410Z,1008.7
2019-05-02T10:53:24.938Z,1008.7
2019-05-02T10:54:27.835Z,1008.6
2019-05-02T10:55:26.122Z,1008.6
2019-05-02T10:56:24.845Z,1008.7
2019-05-02T10:57:24.882Z,1008.7
2019-05-02T10:58:31.144Z,1008.7
2019-05-02T10:59:24.909Z,1008.7
2019-05-02T11:00:24.924Z,1008.6
2019-05-02T11:01:24.930Z,1008.6
2019-05-02T11:02:24.980Z,1008.8
2019-05-02T11:03:24.985Z,1008.7
2019-05-02T11:04:29.058Z,1008.6
2019-05-02T11:05:26.516Z,1008.6
2019-05-02T11:06:25.000Z,1008.6
2019-05-02T11:07:26.438Z,1008.6
2019-05-02T11:08:25.046Z,1008.6
2019-05-02T11:09:26.319Z,1008.5
2019-05-02T11:10:25.048Z,1008.5
2019-05-02T11:11:25.055Z,1008.7
2019-05-02T11:12:27.455Z,1008.6
2019-05-02T11:13:25.108Z,1008.7
2019-05-02T11:14:25.090Z,1008.6
2019-05-02T11:15:26.765Z,1008.6
2019-05-02T11:16:25.105Z,1008.6
2019-05-02T11:17:25.128Z,1008.6
2019-05-02T11:18:39.345Z,1008.6
2019-05-02T11:19:25.083Z,1008.6
2019-05-02T11:20:25.091Z,1008.5
2019-05-02T11:21:25.159Z,1008.5
2019-05-02T11:22:25.146Z,1008.5
2019-05-02T11:23:25.231Z,1008.5
2019-05-02T11:24:25.232Z,1008.4
2019-05-02T11:25:25.331Z,1008.5
2019-05-02T11:26:25.520Z,1008.5
2019-05-02T11:27:25.386Z,1008.4
2019-05-02T11:28:25.403Z,1008.3
2019-05-02T11:29:25.553Z,1008.3
2019-05-02T11:30:26.672Z,1008.3
2019-05-02T11:31:25.554Z,1008.2
2019-05-02T11:32:25.579Z,1008.3
2019-05-02T11:33:25.643Z,1008.4
2019-05-02T11:34:25.699Z,1008.4
2019-05-02T11:35:25.758Z,1008.3
2019-05-02T11:36:27.442Z,1008.3
2019-05-02T11:37:25.884Z,1008.3
2019-05-02T11:38:29.710Z,1008.3
2019-05-02T11:39:32.726Z,1008.3
2019-05-02T11:40:26.009Z,1008.3
2019-05-02T11:41:26.106Z,1008.3
2019-05-02T11:42:27.285Z,1008.3
2019-05-02T11:43:26.205Z,1008.3
2019-05-02T11:44:26.237Z,1008.2
2019-05-02T11:45:26.313Z,1008.2
2019-05-02T11:46:26.350Z,1008.3
2019-05-02T11:47:26.731Z,1008.4
2019-05-02T11:48:26.423Z,1008.4
2019-05-02T11:49:26.500Z,1008.3
2019-05-02T11:50:26.783Z,1008.3
2019-05-02T11:51:26.621Z,1008.3
2019-05-02T11:52:27.318Z,1008.3
2019-05-02T11:53:29.305Z,1008.2
2019-05-02T11:54:27.770Z,1008.4
2019-05-02T11:55:28.938Z,1008.3
2019-05-02T11:56:26.731Z,1008.3
2019-05-02T11:57:28.372Z,1008.3
2019-05-02T11:58:26.830Z,1008.3
2019-05-02T11:59:27.762Z,1008.3
2019-05-02T12:00:26.911Z,1008.3
2019-05-02T12:01:35.302Z,1008.2
2019-05-02T12:02:26.973Z,1008.2
2019-05-02T12:03:28.075Z,1008.1
2019-05-02T12:04:37.420Z,1008.1
2019-05-02T12:05:31.619Z,1008.2
2019-05-02T12:06:27.101Z,1008.1
2019-05-02T12:07:27.117Z,1008
2019-05-02T12:08:27.167Z,1008.1
2019-05-02T12:09:27.203Z,1008.1
2019-05-02T12:10:27.890Z,1008
2019-05-02T12:11:27.323Z,1008
2019-05-02T12:12:32.326Z,1008
2019-05-02T12:13:27.364Z,1008
2019-05-02T12:14:32.093Z,1008
2019-05-02T12:15:27.457Z,1008
2019-05-02T12:16:27.490Z,1008
2019-05-02T12:17:27.540Z,1008
2019-05-02T12:18:27.548Z,1008.1
2019-05-02T12:19:27.577Z,1008
2019-05-02T12:20:28.533Z,1008
2019-05-02T12:21:27.662Z,1008.1
2019-05-02T12:22:27.711Z,1007.9
2019-05-02T12:23:27.731Z,1007.9
2019-05-02T12:24:27.773Z,1007.9
2019-05-02T12:25:27.782Z,1007.9
2019-05-02T12:26:27.828Z,1007.8
2019-05-02T12:27:27.851Z,1007.9
2019-05-02T12:28:27.874Z,1007.8
2019-05-02T12:29:27.902Z,1007.8
2019-05-02T12:30:28.886Z,1007.8
2019-05-02T12:31:27.965Z,1007.8
2019-05-02T12:32:27.973Z,1007.8
2019-05-02T12:33:27.974Z,1007.9
2019-05-02T12:34:27.977Z,1007.8
2019-05-02T12:35:28.034Z,1007.9
2019-05-02T12:36:28.016Z,1007.9
2019-05-02T12:37:28.043Z,1007.9